createdAt,value
2023-04-17T00:00:11.586Z,11.15
2023-04-17T00:01:11.567Z,11.17
2023-04-17T00:02:11.583Z,11.15
2023-04-17T00:03:11.698Z,11.15
2023-04-17T00:04:11.929Z,11.14
2023-04-17T00:05:11.603Z,11.15
2023-04-17T00:06:11.520Z,11.15
2023-04-17T00:07:11.530Z,11.15
2023-04-17T00:08:12.254Z,11.15
2023-04-17T00:09:11.804Z,11.15
2023-04-17T00:10:11.480Z,11.14
2023-04-17T00:11:11.473Z,11.15
2023-04-17T00:12:11.480Z,11.14
2023-04-17T00:13:11.435Z,11.12
2023-04-17T00:14:11.433Z,11.14
2023-04-17T00:15:11.410Z,11.12
2023-04-17T00:16:11.501Z,11.12
2023-04-17T00:17:11.415Z,11.12
2023-04-17T00:18:12.405Z,11.12
2023-04-17T00:19:12.076Z,11.12
2023-04-17T00:20:11.360Z,11.11
2023-04-17T00:21:11.372Z,11.10
2023-04-17T00:22:11.357Z,11.10
2023-04-17T00:23:11.348Z,11.12
2023-04-17T00:24:11.313Z,11.12
2023-04-17T00:25:11.317Z,11.14
2023-04-17T00:26:11.345Z,11.14
2023-04-17T00:27:11.302Z,11.15
2023-04-17T00:28:11.257Z,11.12
2023-04-17T00:29:12.774Z,11.12
2023-04-17T00:30:11.255Z,11.11
2023-04-17T00:31:11.238Z,11.11
2023-04-17T00:32:11.346Z,11.12
2023-04-17T00:33:11.211Z,11.10
2023-04-17T00:34:11.204Z,11.08
2023-04-17T00:35:11.216Z,11.10
2023-04-17T00:36:11.194Z,11.08
2023-04-17T00:37:11.169Z,11.07
2023-04-17T00:38:11.183Z,11.05
2023-04-17T00:39:11.467Z,11.04
2023-04-17T00:40:11.167Z,11.05
2023-04-17T00:41:11.137Z,11.04
2023-04-17T00:42:11.598Z,11.00
2023-04-17T00:43:11.114Z,10.99
2023-04-17T00:44:11.104Z,10.97
2023-04-17T00:45:11.115Z,10.97
2023-04-17T00:46:11.146Z,10.96
2023-04-17T00:47:11.067Z,10.96
2023-04-17T00:48:11.079Z,10.96
2023-04-17T00:49:11.696Z,10.96
2023-04-17T00:50:11.057Z,10.96
2023-04-17T00:51:11.020Z,10.96
2023-04-17T00:52:11.053Z,10.96
2023-04-17T00:53:10.997Z,10.96
2023-04-17T00:54:11.001Z,10.92
2023-04-17T00:55:10.977Z,10.92
2023-04-17T00:56:10.958Z,10.92
2023-04-17T00:57:10.948Z,10.90
2023-04-17T00:58:10.940Z,10.89
2023-04-17T00:59:11.229Z,10.89
2023-04-17T01:00:11.995Z,10.87
2023-04-17T01:01:10.928Z,10.87
2023-04-17T01:02:10.975Z,10.89
2023-04-17T01:03:10.976Z,10.89
2023-04-17T01:04:10.989Z,10.89
2023-04-17T01:05:11.846Z,10.90
2023-04-17T01:06:10.880Z,10.89
2023-04-17T01:07:10.829Z,10.90
2023-04-17T01:08:10.838Z,10.90
2023-04-17T01:09:10.993Z,10.92
2023-04-17T01:10:10.813Z,10.90
2023-04-17T01:11:10.801Z,10.90
2023-04-17T01:12:10.797Z,10.92
2023-04-17T01:13:10.765Z,10.92
2023-04-17T01:14:10.766Z,10.93
2023-04-17T01:15:10.761Z,10.94
2023-04-17T01:16:10.721Z,10.93
2023-04-17T01:17:10.831Z,10.93
2023-04-17T01:18:10.805Z,10.93
2023-04-17T01:19:10.893Z,10.92
2023-04-17T01:20:10.704Z,10.92
2023-04-17T01:21:10.676Z,10.92
2023-04-17T01:22:10.681Z,10.92
2023-04-17T01:23:10.698Z,10.89
2023-04-17T01:24:10.650Z,10.89
2023-04-17T01:25:10.648Z,10.89
2023-04-17T01:26:10.629Z,10.89
2023-04-17T01:27:10.603Z,10.90
2023-04-17T01:28:10.610Z,10.92
2023-04-17T01:29:11.825Z,10.92
2023-04-17T01:30:10.597Z,10.94
2023-04-17T01:31:10.581Z,10.94
2023-04-17T01:32:10.598Z,10.92
2023-04-17T01:33:10.541Z,10.92
2023-04-17T01:34:11.213Z,10.92
2023-04-17T01:35:10.566Z,10.92
2023-04-17T01:36:11.575Z,10.92
2023-04-17T01:37:10.537Z,10.89
2023-04-17T01:38:10.557Z,10.89
2023-04-17T01:39:11.630Z,10.86
2023-04-17T01:40:10.453Z,10.84
2023-04-17T01:41:10.502Z,10.84
2023-04-17T01:42:10.443Z,10.84
2023-04-17T01:43:10.719Z,10.84
2023-04-17T01:44:10.412Z,10.82
2023-04-17T01:45:10.412Z,10.81
2023-04-17T01:46:10.631Z,10.79
2023-04-17T01:47:10.403Z,10.79
2023-04-17T01:48:10.365Z,10.79
2023-04-17T01:49:10.608Z,10.79
2023-04-17T01:50:11.247Z,10.78
2023-04-17T01:51:10.360Z,10.76
2023-04-17T01:52:10.324Z,10.76
2023-04-17T01:53:10.339Z,10.76
2023-04-17T01:54:10.316Z,10.75
2023-04-17T01:55:10.305Z,10.75
2023-04-17T01:56:10.379Z,10.76
2023-04-17T01:57:11.238Z,10.76
2023-04-17T01:58:10.307Z,10.76
2023-04-17T01:59:10.530Z,10.76
2023-04-17T02:00:11.223Z,10.75
2023-04-17T02:01:10.278Z,10.75
2023-04-17T02:02:11.330Z,10.74
2023-04-17T02:03:10.319Z,10.74
2023-04-17T02:04:10.346Z,10.74
2023-04-17T02:05:10.202Z,10.72
2023-04-17T02:06:10.383Z,10.74
2023-04-17T02:07:10.162Z,10.74
2023-04-17T02:08:10.223Z,10.74
2023-04-17T02:09:10.522Z,10.74
2023-04-17T02:10:10.127Z,10.72
2023-04-17T02:11:10.173Z,10.72
2023-04-17T02:12:10.103Z,10.71
2023-04-17T02:13:10.121Z,10.71
2023-04-17T02:14:10.142Z,10.69
2023-04-17T02:15:10.097Z,10.71
2023-04-17T02:16:10.076Z,10.71
2023-04-17T02:17:10.062Z,10.69
2023-04-17T02:18:10.189Z,10.69
2023-04-17T02:19:10.419Z,10.68
2023-04-17T02:20:10.930Z,10.69
2023-04-17T02:21:10.002Z,10.68
2023-04-17T02:22:09.995Z,10.67
2023-04-17T02:23:09.987Z,10.64
2023-04-17T02:24:09.969Z,10.64
2023-04-17T02:25:10.268Z,10.63
2023-04-17T02:26:09.955Z,10.64
2023-04-17T02:27:09.944Z,10.67
2023-04-17T02:28:10.485Z,10.68
2023-04-17T02:29:11.137Z,10.67
2023-04-17T02:30:09.906Z,10.67
2023-04-17T02:31:10.317Z,10.68
2023-04-17T02:32:09.911Z,10.67
2023-04-17T02:33:09.913Z,10.67
2023-04-17T02:34:10.832Z,10.68
2023-04-17T02:35:09.860Z,10.64
2023-04-17T02:36:09.836Z,10.63
2023-04-17T02:37:09.826Z,10.64
2023-04-17T02:38:09.812Z,10.64
2023-04-17T02:39:11.477Z,10.64
2023-04-17T02:40:11.245Z,10.67
2023-04-17T02:41:10.800Z,10.64
2023-04-17T02:42:09.924Z,10.63
2023-04-17T02:43:11.318Z,10.64
2023-04-17T02:44:09.785Z,10.61
2023-04-17T02:45:09.830Z,10.61
2023-04-17T02:46:09.761Z,10.60
2023-04-17T02:47:10.609Z,10.59
2023-04-17T02:48:10.670Z,10.57
2023-04-17T02:49:09.941Z,10.57
2023-04-17T02:50:11.157Z,10.57
2023-04-17T02:51:09.835Z,10.57
2023-04-17T02:52:10.631Z,10.57
2023-04-17T02:53:09.651Z,10.57
2023-04-17T02:54:11.091Z,10.59
2023-04-17T02:55:10.228Z,10.59
2023-04-17T02:56:09.779Z,10.59
2023-04-17T02:57:11.075Z,10.59
2023-04-17T02:58:09.596Z,10.59
2023-04-17T02:59:10.777Z,10.57
2023-04-17T03:00:09.571Z,10.56
2023-04-17T03:01:09.613Z,10.57
2023-04-17T03:02:10.585Z,10.54
2023-04-17T03:03:11.182Z,10.54
2023-04-17T03:04:09.602Z,10.53
2023-04-17T03:05:10.384Z,10.53
2023-04-17T03:06:09.505Z,10.51
2023-04-17T03:07:09.503Z,10.49
2023-04-17T03:08:09.691Z,10.51
2023-04-17T03:09:09.620Z,10.46
2023-04-17T03:10:09.524Z,10.48
2023-04-17T03:11:10.437Z,10.48
2023-04-17T03:12:09.464Z,10.49
2023-04-17T03:13:10.247Z,10.49
2023-04-17T03:14:09.453Z,10.48
2023-04-17T03:15:09.420Z,10.48
2023-04-17T03:16:09.539Z,10.49
2023-04-17T03:17:09.376Z,10.49
2023-04-17T03:18:09.371Z,10.51
2023-04-17T03:19:09.521Z,10.49
2023-04-17T03:20:10.132Z,10.49
2023-04-17T03:21:09.372Z,10.48
2023-04-17T03:22:10.047Z,10.46
2023-04-17T03:23:09.365Z,10.44
2023-04-17T03:24:09.330Z,10.42
2023-04-17T03:25:09.301Z,10.41
2023-04-17T03:26:09.424Z,10.40
2023-04-17T03:27:09.713Z,10.40
2023-04-17T03:28:09.260Z,10.40
2023-04-17T03:29:09.550Z,10.38
2023-04-17T03:30:14.495Z,10.38
2023-04-17T03:31:09.243Z,10.38
2023-04-17T03:32:09.378Z,10.38
2023-04-17T03:33:09.208Z,10.41
2023-04-17T03:34:09.243Z,10.40
2023-04-17T03:35:09.217Z,10.42
2023-04-17T03:36:09.210Z,10.40
2023-04-17T03:37:09.265Z,10.40
2023-04-17T03:38:09.363Z,10.41
2023-04-17T03:39:10.573Z,10.40
2023-04-17T03:40:09.345Z,10.40
2023-04-17T03:41:10.578Z,10.38
2023-04-17T03:42:09.299Z,10.38
2023-04-17T03:43:09.094Z,10.37
2023-04-17T03:44:09.117Z,10.37
2023-04-17T03:45:09.091Z,10.38
2023-04-17T03:46:09.132Z,10.38
2023-04-17T03:47:09.055Z,10.37
2023-04-17T03:48:16.854Z,10.37
2023-04-17T03:49:09.172Z,10.34
2023-04-17T03:50:09.069Z,10.33
2023-04-17T03:51:09.050Z,10.33
2023-04-17T03:52:08.992Z,10.30
2023-04-17T03:53:08.996Z,10.31
2023-04-17T03:54:09.073Z,10.31
2023-04-17T03:55:10.498Z,10.30
2023-04-17T03:56:08.948Z,10.26
2023-04-17T03:57:08.955Z,10.28
2023-04-17T03:58:08.936Z,10.30
2023-04-17T03:59:08.954Z,10.28
2023-04-17T04:00:09.009Z,10.31
2023-04-17T04:01:08.914Z,10.30
2023-04-17T04:02:08.945Z,10.30
2023-04-17T04:03:10.521Z,10.28
2023-04-17T04:04:09.005Z,10.26
2023-04-17T04:05:08.886Z,10.25
2023-04-17T04:06:08.858Z,10.26
2023-04-17T04:07:08.833Z,10.26
2023-04-17T04:08:08.815Z,10.25
2023-04-17T04:09:09.879Z,10.25
2023-04-17T04:10:08.828Z,10.23
2023-04-17T04:11:08.790Z,10.22
2023-04-17T04:12:08.803Z,10.19
2023-04-17T04:13:08.788Z,10.19
2023-04-17T04:14:10.290Z,10.17
2023-04-17T04:15:08.746Z,10.16
2023-04-17T04:16:10.309Z,10.15
2023-04-17T04:17:08.768Z,10.13
2023-04-17T04:18:08.780Z,10.12
2023-04-17T04:19:08.734Z,10.12
2023-04-17T04:20:08.683Z,10.10
2023-04-17T04:21:08.696Z,10.10
2023-04-17T04:22:08.668Z,10.09
2023-04-17T04:23:08.698Z,10.10
2023-04-17T04:24:08.666Z,10.10
2023-04-17T04:25:09.595Z,10.12
2023-04-17T04:26:10.085Z,10.12
2023-04-17T04:27:08.612Z,10.12
2023-04-17T04:28:08.616Z,10.16
2023-04-17T04:29:08.615Z,10.16
2023-04-17T04:30:08.571Z,10.17
2023-04-17T04:31:08.586Z,10.16
2023-04-17T04:32:08.553Z,10.17
2023-04-17T04:33:08.621Z,10.19
2023-04-17T04:34:08.531Z,10.19
2023-04-17T04:35:08.553Z,10.19
2023-04-17T04:36:08.736Z,10.19
2023-04-17T04:37:08.506Z,10.19
2023-04-17T04:38:09.962Z,10.19
2023-04-17T04:39:08.502Z,10.20
2023-04-17T04:40:08.478Z,10.20
2023-04-17T04:41:08.516Z,10.17
2023-04-17T04:42:08.428Z,10.17
2023-04-17T04:43:08.423Z,10.17
2023-04-17T04:44:08.444Z,10.17
2023-04-17T04:45:08.402Z,10.16
2023-04-17T04:46:08.393Z,10.17
2023-04-17T04:47:08.554Z,10.19
2023-04-17T04:48:08.473Z,10.16
2023-04-17T04:49:08.360Z,10.17
2023-04-17T04:50:08.355Z,10.19
2023-04-17T04:51:08.338Z,10.17
2023-04-17T04:52:09.818Z,10.16
2023-04-17T04:53:08.541Z,10.17
2023-04-17T04:54:08.296Z,10.17
2023-04-17T04:55:08.281Z,10.19
2023-04-17T04:56:08.296Z,10.19
2023-04-17T04:57:08.289Z,10.20
2023-04-17T04:58:08.256Z,10.19
2023-04-17T04:59:08.261Z,10.20
2023-04-17T05:00:08.240Z,10.22
2023-04-17T05:01:08.443Z,10.23
2023-04-17T05:02:08.305Z,10.22
2023-04-17T05:03:08.475Z,10.23
2023-04-17T05:04:09.243Z,10.25
2023-04-17T05:05:08.362Z,10.25
2023-04-17T05:06:08.172Z,10.23
2023-04-17T05:07:08.181Z,10.22
2023-04-17T05:08:09.130Z,10.22
2023-04-17T05:09:08.141Z,10.22
2023-04-17T05:10:08.161Z,10.22
2023-04-17T05:11:08.105Z,10.23
2023-04-17T05:12:08.119Z,10.22
2023-04-17T05:13:08.104Z,10.23
2023-04-17T05:14:08.129Z,10.23
2023-04-17T05:15:08.083Z,10.25
2023-04-17T05:16:08.098Z,10.26
2023-04-17T05:17:09.070Z,10.25
2023-04-17T05:18:08.036Z,10.25
2023-04-17T05:19:08.016Z,10.23
2023-04-17T05:20:08.019Z,10.22
2023-04-17T05:21:08.010Z,10.23
2023-04-17T05:22:07.999Z,10.20
2023-04-17T05:23:08.023Z,10.20
2023-04-17T05:24:07.965Z,10.20
2023-04-17T05:25:07.966Z,10.22
2023-04-17T05:26:08.916Z,10.20
2023-04-17T05:27:08.048Z,10.22
2023-04-17T05:28:08.415Z,10.22
2023-04-17T05:29:07.937Z,10.23
2023-04-17T05:30:07.908Z,10.25
2023-04-17T05:31:07.927Z,10.28
2023-04-17T05:32:08.077Z,10.28
2023-04-17T05:33:09.009Z,10.31
2023-04-17T05:34:07.878Z,10.31
2023-04-17T05:35:07.861Z,10.33
2023-04-17T05:36:07.839Z,10.33
2023-04-17T05:37:07.833Z,10.35
2023-04-17T05:38:09.376Z,10.35
2023-04-17T05:39:07.825Z,10.35
2023-04-17T05:40:07.795Z,10.38
2023-04-17T05:41:07.781Z,10.38
2023-04-17T05:42:07.778Z,10.40
2023-04-17T05:43:07.782Z,10.42
2023-04-17T05:44:07.762Z,10.41
2023-04-17T05:45:07.763Z,10.41
2023-04-17T05:46:07.874Z,10.42
2023-04-17T05:47:07.711Z,10.44
2023-04-17T05:48:08.676Z,10.46
2023-04-17T05:49:07.758Z,10.46
2023-04-17T05:50:08.407Z,10.48
2023-04-17T05:51:07.699Z,10.53
2023-04-17T05:52:07.661Z,10.53
2023-04-17T05:53:07.688Z,10.54
2023-04-17T05:54:08.872Z,10.54
2023-04-17T05:55:07.637Z,10.53
2023-04-17T05:56:07.613Z,10.53
2023-04-17T05:57:07.674Z,10.54
2023-04-17T05:58:20.412Z,10.54
2023-04-17T05:59:08.625Z,10.53
2023-04-17T06:00:07.614Z,10.57
2023-04-17T06:01:07.571Z,10.59
2023-04-17T06:02:07.792Z,10.59
2023-04-17T06:03:07.914Z,10.60
2023-04-17T06:04:07.767Z,10.63
2023-04-17T06:05:07.871Z,10.63
2023-04-17T06:06:08.460Z,10.67
2023-04-17T06:07:07.526Z,10.68
2023-04-17T06:08:07.512Z,10.68
2023-04-17T06:09:08.510Z,10.71
2023-04-17T06:10:07.457Z,10.72
2023-04-17T06:11:07.477Z,10.74
2023-04-17T06:12:07.456Z,10.75
2023-04-17T06:13:07.450Z,10.76
2023-04-17T06:14:07.422Z,10.76
2023-04-17T06:15:08.102Z,10.78
2023-04-17T06:16:08.387Z,10.79
2023-04-17T06:17:07.676Z,10.79
2023-04-17T06:18:07.446Z,10.82
2023-04-17T06:19:07.391Z,10.81
2023-04-17T06:20:07.365Z,10.81
2023-04-17T06:21:07.368Z,10.81
2023-04-17T06:22:08.305Z,10.82
2023-04-17T06:23:07.351Z,10.82
2023-04-17T06:24:07.312Z,10.84
2023-04-17T06:25:07.293Z,10.84
2023-04-17T06:26:07.358Z,10.82
2023-04-17T06:27:07.287Z,10.84
2023-04-17T06:28:07.391Z,10.86
2023-04-17T06:29:07.258Z,10.84
2023-04-17T06:30:07.244Z,10.86
2023-04-17T06:31:07.319Z,10.84
2023-04-17T06:32:07.272Z,10.87
2023-04-17T06:33:07.449Z,10.89
2023-04-17T06:34:07.208Z,10.89
2023-04-17T06:35:07.193Z,10.90
2023-04-17T06:36:07.194Z,10.92
2023-04-17T06:37:07.194Z,10.92
2023-04-17T06:38:07.193Z,10.93
2023-04-17T06:39:07.140Z,10.94
2023-04-17T06:40:07.149Z,10.96
2023-04-17T06:41:07.121Z,10.97
2023-04-17T06:42:07.397Z,10.99
2023-04-17T06:43:07.143Z,11.00
2023-04-17T06:44:07.115Z,11.02
2023-04-17T06:45:07.489Z,11.05
2023-04-17T06:46:07.119Z,11.05
2023-04-17T06:47:07.899Z,11.07
2023-04-17T06:48:07.405Z,11.08
2023-04-17T06:49:07.056Z,11.08
2023-04-17T06:50:07.040Z,11.08
2023-04-17T06:51:07.008Z,11.12
2023-04-17T06:52:07.033Z,11.11
2023-04-17T06:53:07.958Z,11.14
2023-04-17T06:54:06.976Z,11.17
2023-04-17T06:55:07.393Z,11.17
2023-04-17T06:56:07.916Z,11.19
2023-04-17T06:57:06.975Z,11.22
2023-04-17T06:58:07.410Z,11.23
2023-04-17T06:59:06.927Z,11.26
2023-04-17T07:00:06.938Z,11.27
2023-04-17T07:01:06.917Z,11.32
2023-04-17T07:02:06.974Z,11.32
2023-04-17T07:03:07.014Z,11.29
2023-04-17T07:04:06.956Z,11.26
2023-04-17T07:05:06.869Z,11.25
2023-04-17T07:06:06.907Z,11.25
2023-04-17T07:07:06.869Z,11.23
2023-04-17T07:08:06.817Z,11.25
2023-04-17T07:09:06.843Z,11.25
2023-04-17T07:10:06.816Z,11.26
2023-04-17T07:11:06.829Z,11.26
2023-04-17T07:12:06.813Z,11.26
2023-04-17T07:13:06.811Z,11.25
2023-04-17T07:14:06.770Z,11.26
2023-04-17T07:15:06.808Z,11.26
2023-04-17T07:16:07.659Z,11.26
2023-04-17T07:17:06.731Z,11.27
2023-04-17T07:18:06.797Z,11.27
2023-04-17T07:19:06.741Z,11.27
2023-04-17T07:20:06.696Z,11.26
2023-04-17T07:21:06.711Z,11.27
2023-04-17T07:22:07.645Z,11.29
2023-04-17T07:23:06.725Z,11.29
2023-04-17T07:24:06.663Z,11.32
2023-04-17T07:25:07.516Z,11.32
2023-04-17T07:26:07.645Z,11.35
2023-04-17T07:27:06.623Z,11.33
2023-04-17T07:28:06.591Z,11.32
2023-04-17T07:29:06.629Z,11.32
2023-04-17T07:30:06.576Z,11.35
2023-04-17T07:31:06.611Z,11.36
2023-04-17T07:32:06.578Z,11.37
2023-04-17T07:33:06.601Z,11.40
2023-04-17T07:34:06.635Z,11.40
2023-04-17T07:35:06.546Z,11.40
2023-04-17T07:36:06.501Z,11.41
2023-04-17T07:37:06.604Z,11.43
2023-04-17T07:38:06.490Z,11.44
2023-04-17T07:39:06.523Z,11.45
2023-04-17T07:40:06.469Z,11.44
2023-04-17T07:41:06.476Z,11.45
2023-04-17T07:42:06.436Z,11.43
2023-04-17T07:43:06.467Z,11.44
2023-04-17T07:44:06.442Z,11.45
2023-04-17T07:45:06.433Z,11.47
2023-04-17T07:46:06.455Z,11.50
2023-04-17T07:47:06.513Z,11.54
2023-04-17T07:48:06.432Z,11.59
2023-04-17T07:49:06.368Z,11.60
2023-04-17T07:50:06.360Z,11.60
2023-04-17T07:51:06.337Z,11.63
2023-04-17T07:52:06.362Z,11.65
2023-04-17T07:53:06.338Z,11.66
2023-04-17T07:54:06.308Z,11.68
2023-04-17T07:55:06.286Z,11.68
2023-04-17T07:56:06.301Z,11.66
2023-04-17T07:57:06.302Z,11.66
2023-04-17T07:58:06.279Z,11.66
2023-04-17T07:59:06.260Z,11.69
2023-04-17T08:00:06.231Z,11.70
2023-04-17T08:01:06.214Z,11.73
2023-04-17T08:02:06.874Z,11.75
2023-04-17T08:03:06.546Z,11.77
2023-04-17T08:04:06.430Z,11.80
2023-04-17T08:05:06.460Z,11.81
2023-04-17T08:06:06.172Z,11.84
2023-04-17T08:07:06.159Z,11.88
2023-04-17T08:08:06.184Z,11.95
2023-04-17T08:09:06.169Z,12.02
2023-04-17T08:10:06.134Z,12.02
2023-04-17T08:11:06.113Z,12.04
2023-04-17T08:12:06.118Z,12.09
2023-04-17T08:13:06.109Z,12.13
2023-04-17T08:14:06.105Z,12.17
2023-04-17T08:15:06.305Z,12.20
2023-04-17T08:16:06.073Z,12.24
2023-04-17T08:17:06.122Z,12.28
2023-04-17T08:18:06.088Z,12.29
2023-04-17T08:19:06.033Z,12.31
2023-04-17T08:20:06.054Z,12.31
2023-04-17T08:21:06.023Z,12.28
2023-04-17T08:22:06.000Z,12.28
2023-04-17T08:23:06.024Z,12.27
2023-04-17T08:24:05.976Z,12.27
2023-04-17T08:25:05.963Z,12.27
2023-04-17T08:26:05.955Z,12.25
2023-04-17T08:27:05.946Z,12.27
2023-04-17T08:28:05.972Z,12.25
2023-04-17T08:29:05.970Z,12.28
2023-04-17T08:30:05.920Z,12.27
2023-04-17T08:31:05.944Z,12.29
2023-04-17T08:32:13.417Z,12.35
2023-04-17T08:33:06.896Z,12.36
2023-04-17T08:34:13.635Z,12.40
2023-04-17T08:35:06.854Z,12.45
2023-04-17T08:36:07.229Z,12.45
2023-04-17T08:37:05.847Z,12.46
2023-04-17T08:38:05.829Z,12.47
2023-04-17T08:39:05.800Z,12.50
2023-04-17T08:40:05.938Z,12.53
2023-04-17T08:41:05.817Z,12.53
2023-04-17T08:42:05.788Z,12.60
2023-04-17T08:43:07.294Z,12.61
2023-04-17T08:44:05.760Z,12.62
2023-04-17T08:45:05.756Z,12.67
2023-04-17T08:46:05.793Z,12.70
2023-04-17T08:47:05.745Z,12.72
2023-04-17T08:48:05.790Z,12.73
2023-04-17T08:49:05.704Z,12.76
2023-04-17T08:50:07.168Z,12.79
2023-04-17T08:51:05.976Z,12.79
2023-04-17T08:52:05.767Z,12.79
2023-04-17T08:53:05.693Z,12.82
2023-04-17T08:54:05.659Z,12.83
2023-04-17T08:55:05.637Z,12.90
2023-04-17T08:56:08.295Z,12.91
2023-04-17T08:57:05.650Z,12.95
2023-04-17T08:58:05.632Z,12.98
2023-04-17T08:59:05.671Z,13.03
2023-04-17T09:00:05.698Z,13.01
2023-04-17T09:01:05.583Z,13.04
2023-04-17T09:02:05.709Z,13.08
2023-04-17T09:03:07.507Z,13.11
2023-04-17T09:04:05.801Z,13.13
2023-04-17T09:05:06.563Z,13.16
2023-04-17T09:06:05.517Z,13.20
2023-04-17T09:07:05.496Z,13.22
2023-04-17T09:08:05.531Z,13.25
2023-04-17T09:09:05.509Z,13.28
2023-04-17T09:10:05.501Z,13.33
2023-04-17T09:11:05.444Z,13.38
2023-04-17T09:12:05.468Z,13.42
2023-04-17T09:13:05.444Z,13.46
2023-04-17T09:14:05.465Z,13.50
2023-04-17T09:15:05.423Z,13.52
2023-04-17T09:16:05.472Z,13.53
2023-04-17T09:17:05.590Z,13.54
2023-04-17T09:18:06.890Z,13.59
2023-04-17T09:19:06.081Z,13.65
2023-04-17T09:20:05.361Z,13.72
2023-04-17T09:21:05.360Z,13.78
2023-04-17T09:22:05.341Z,13.83
2023-04-17T09:23:05.344Z,13.90
2023-04-17T09:24:06.201Z,13.97
2023-04-17T09:25:05.342Z,14.00
2023-04-17T09:26:05.289Z,14.11
2023-04-17T09:27:05.320Z,14.17
2023-04-17T09:28:05.289Z,14.18
2023-04-17T09:29:05.735Z,14.22
2023-04-17T09:30:05.316Z,14.25
2023-04-17T09:31:05.307Z,14.26
2023-04-17T09:32:05.273Z,14.30
2023-04-17T09:33:05.222Z,14.33
2023-04-17T09:34:05.220Z,14.37
2023-04-17T09:35:05.276Z,14.41
2023-04-17T09:36:05.248Z,14.43
2023-04-17T09:37:05.200Z,14.43
2023-04-17T09:38:05.178Z,14.43
2023-04-17T09:39:05.194Z,14.47
2023-04-17T09:40:05.416Z,14.50
2023-04-17T09:41:05.128Z,14.54
2023-04-17T09:42:05.129Z,14.59
2023-04-17T09:43:08.165Z,14.60
2023-04-17T09:44:05.144Z,14.65
2023-04-17T09:45:05.090Z,14.70
2023-04-17T09:46:05.372Z,14.77
2023-04-17T09:47:05.209Z,14.82
2023-04-17T09:48:05.104Z,14.85
2023-04-17T09:49:05.036Z,14.89
2023-04-17T09:50:05.346Z,14.92
2023-04-17T09:51:05.050Z,14.96
2023-04-17T09:52:05.057Z,14.96
2023-04-17T09:53:05.083Z,14.94
2023-04-17T09:54:05.414Z,14.92
2023-04-17T09:55:04.993Z,14.94
2023-04-17T09:56:04.957Z,14.96
2023-04-17T09:57:07.378Z,14.89
2023-04-17T09:58:04.953Z,14.85
2023-04-17T09:59:04.942Z,14.85
2023-04-17T10:00:06.396Z,14.84
2023-04-17T10:01:04.938Z,14.84
2023-04-17T10:02:05.150Z,14.86
2023-04-17T10:03:05.116Z,14.89
2023-04-17T10:04:05.040Z,14.94
2023-04-17T10:05:04.923Z,14.99
2023-04-17T10:06:04.853Z,14.97
2023-04-17T10:07:04.849Z,14.97
2023-04-17T10:08:04.871Z,15.00
2023-04-17T10:09:04.805Z,15.00
2023-04-17T10:10:04.802Z,15.04
2023-04-17T10:11:04.787Z,15.07
2023-04-17T10:12:04.809Z,15.06
2023-04-17T10:13:04.797Z,15.09
2023-04-17T10:14:05.113Z,15.09
2023-04-17T10:15:04.743Z,15.09
2023-04-17T10:16:04.784Z,15.09
2023-04-17T10:17:04.733Z,15.10
2023-04-17T10:18:04.816Z,15.10
2023-04-17T10:19:04.704Z,15.11
2023-04-17T10:20:04.714Z,15.17
2023-04-17T10:21:06.113Z,15.22
2023-04-17T10:22:04.681Z,15.24
2023-04-17T10:23:04.656Z,15.27
2023-04-17T10:24:04.669Z,15.28
2023-04-17T10:25:04.842Z,15.29
2023-04-17T10:26:04.627Z,15.33
2023-04-17T10:27:05.591Z,15.37
2023-04-17T10:28:04.605Z,15.39
2023-04-17T10:29:04.584Z,15.44
2023-04-17T10:30:06.392Z,15.47
2023-04-17T10:31:04.567Z,15.54
2023-04-17T10:32:04.680Z,15.55
2023-04-17T10:33:07.716Z,15.59
2023-04-17T10:34:04.533Z,15.61
2023-04-17T10:35:04.717Z,15.59
2023-04-17T10:36:05.557Z,15.59
2023-04-17T10:37:04.499Z,15.61
2023-04-17T10:38:04.489Z,15.59
2023-04-17T10:39:04.470Z,15.62
2023-04-17T10:40:04.465Z,15.61
2023-04-17T10:41:04.548Z,15.65
2023-04-17T10:42:04.477Z,15.65
2023-04-17T10:43:04.430Z,15.67
2023-04-17T10:44:04.425Z,15.68
2023-04-17T10:45:04.405Z,15.72
2023-04-17T10:46:04.469Z,15.76
2023-04-17T10:47:05.226Z,15.86
2023-04-17T10:48:04.520Z,15.91
2023-04-17T10:49:04.608Z,15.98
2023-04-17T10:50:04.837Z,16.05
2023-04-17T10:51:04.415Z,16.10
2023-04-17T10:52:04.445Z,16.16
2023-04-17T10:53:04.479Z,16.21
2023-04-17T10:54:04.437Z,16.23
2023-04-17T10:55:04.305Z,16.26
2023-04-17T10:56:04.303Z,16.32
2023-04-17T10:57:04.289Z,16.33
2023-04-17T10:58:04.271Z,16.33
2023-04-17T10:59:05.221Z,16.33
2023-04-17T11:00:05.073Z,16.33
2023-04-17T11:01:04.273Z,16.38
2023-04-17T11:02:04.872Z,16.39
2023-04-17T11:03:04.348Z,16.43
2023-04-17T11:04:04.289Z,16.46
2023-04-17T11:05:04.260Z,16.47
2023-04-17T11:06:04.441Z,16.53
2023-04-17T11:07:04.985Z,16.58
2023-04-17T11:08:04.189Z,16.65
2023-04-17T11:09:04.157Z,16.71
2023-04-17T11:10:04.158Z,16.75
2023-04-17T11:11:04.140Z,16.76
2023-04-17T11:12:05.200Z,16.75
2023-04-17T11:13:04.170Z,16.78
2023-04-17T11:14:04.117Z,16.79
2023-04-17T11:15:04.289Z,16.79
2023-04-17T11:16:04.107Z,16.76
2023-04-17T11:17:05.134Z,16.75
2023-04-17T11:18:04.155Z,16.76
2023-04-17T11:19:04.036Z,16.76
2023-04-17T11:20:04.823Z,16.76
2023-04-17T11:21:04.017Z,16.76
2023-04-17T11:22:04.057Z,16.74
2023-04-17T11:23:03.992Z,16.74
2023-04-17T11:24:05.443Z,16.72
2023-04-17T11:25:03.975Z,16.74
2023-04-17T11:26:04.018Z,16.78
2023-04-17T11:27:04.116Z,16.84
2023-04-17T11:28:03.951Z,16.93
2023-04-17T11:29:04.154Z,17.04
2023-04-17T11:30:03.921Z,17.12
2023-04-17T11:31:03.898Z,17.23
2023-04-17T11:32:04.057Z,17.29
2023-04-17T11:33:04.408Z,17.33
2023-04-17T11:34:04.047Z,17.36
2023-04-17T11:35:05.325Z,17.41
2023-04-17T11:36:05.305Z,17.44
2023-04-17T11:37:05.428Z,17.46
2023-04-17T11:38:05.337Z,17.48
2023-04-17T11:39:04.043Z,17.46
2023-04-17T11:40:04.212Z,17.42
2023-04-17T11:41:03.793Z,17.31
2023-04-17T11:42:03.819Z,17.26
2023-04-17T11:43:05.264Z,17.23
2023-04-17T11:44:03.780Z,17.24
2023-04-17T11:45:05.215Z,17.29
2023-04-17T11:46:03.843Z,17.33
2023-04-17T11:47:03.714Z,17.38
2023-04-17T11:48:03.885Z,17.34
2023-04-17T11:49:03.801Z,17.39
2023-04-17T11:50:03.707Z,17.41
2023-04-17T11:51:03.713Z,17.42
2023-04-17T11:52:03.718Z,17.42
2023-04-17T11:53:03.655Z,17.41
2023-04-17T11:54:03.814Z,17.38
2023-04-17T11:55:03.640Z,17.34
2023-04-17T11:56:03.638Z,17.30
2023-04-17T11:57:03.614Z,17.26
2023-04-17T11:58:03.651Z,17.24
2023-04-17T11:59:03.586Z,17.24
2023-04-17T12:00:03.808Z,17.26
2023-04-17T12:01:03.575Z,17.29
2023-04-17T12:02:03.835Z,17.29
2023-04-17T12:03:03.695Z,17.26
2023-04-17T12:04:03.680Z,17.26
2023-04-17T12:05:03.806Z,17.23
2023-04-17T12:06:03.528Z,17.16
2023-04-17T12:07:03.525Z,17.12
2023-04-17T12:08:03.505Z,17.05
2023-04-17T12:09:03.484Z,16.97
2023-04-17T12:10:03.508Z,16.94
2023-04-17T12:11:03.475Z,16.91
2023-04-17T12:12:03.446Z,16.90
2023-04-17T12:13:03.433Z,16.84
2023-04-17T12:14:03.438Z,16.75
2023-04-17T12:15:03.409Z,16.72
2023-04-17T12:16:03.464Z,16.71
2023-04-17T12:17:04.407Z,16.74
2023-04-17T12:18:03.445Z,16.74
2023-04-17T12:19:03.411Z,16.74
2023-04-17T12:20:03.391Z,16.78
2023-04-17T12:21:03.368Z,16.81
2023-04-17T12:22:03.429Z,16.90
2023-04-17T12:23:03.382Z,16.97
2023-04-17T12:24:03.335Z,17.04
2023-04-17T12:25:03.320Z,17.14
2023-04-17T12:26:03.545Z,17.26
2023-04-17T12:27:03.287Z,17.38
2023-04-17T12:28:03.292Z,17.46
2023-04-17T12:29:04.330Z,17.67
2023-04-17T12:30:03.272Z,17.85
2023-04-17T12:31:03.259Z,18.07
2023-04-17T12:32:03.375Z,18.29
2023-04-17T12:33:03.243Z,18.53
2023-04-17T12:34:03.228Z,18.80
2023-04-17T12:35:03.234Z,18.92
2023-04-17T12:36:03.225Z,18.95
2023-04-17T12:37:04.147Z,19.04
2023-04-17T12:38:03.172Z,19.16
2023-04-17T12:39:03.152Z,19.27
2023-04-17T12:40:03.161Z,19.37
2023-04-17T12:41:03.167Z,19.54
2023-04-17T12:42:03.210Z,19.76
2023-04-17T12:43:03.122Z,20.03
2023-04-17T12:44:03.242Z,20.25
2023-04-17T12:45:03.108Z,20.43
2023-04-17T12:46:03.176Z,20.62
2023-04-17T12:47:03.076Z,20.75
2023-04-17T12:48:03.090Z,20.84
2023-04-17T12:49:03.080Z,20.93
2023-04-17T12:50:03.062Z,20.93
2023-04-17T12:51:03.056Z,20.84
2023-04-17T12:52:04.000Z,20.82